Terminal Aerodrome Forecast
Issued by NWS

Home | Current Version | Previous Version | Text Only | Print | Product List | Glossary Off
Versions: 1 2 3 4 5 6 7 8 9 10 11 12 13 14 15 16 17 18

000
FTUS43 KMPX 220800 AAA
TAFRNH
TAF AMD
KRNH 220851Z 2209/2306 20007KT 5SM BR OVC010
     FM221200 20008KT 3SM BR OVC003
     FM221700 18008KT 5SM BR OVC007
     FM230300 18008KT 2SM BR OVC003=

USA.gov is the U.S. government's official web portal to all federal, state and local government web resources and services.